Time;durP1;ratioP1;P1;durP2;ratioP2;P2;SDS_P1;SDS_P2;PMS_P1;PMS_P2;Temp;Humidity;BMP_temperature;BMP_pressure;BME280_temperature;BME280_humidity;BME280_pressure;Samples;Min_cycle;Max_cycle;Signal;HPM_P1;HPM_P2
2024/03/03 00:00:25;;;;;;;1.25;1.10;;;;;;;;;;4998600;28;25060;-65
2024/03/03 00:02:52;;;;;;;1.90;1.60;;;;;;;;;;5007038;28;25063;-63
2024/03/03 00:05:18;;;;;;;1.30;1.20;;;;;;;;;;5006674;28;25150;-65
2024/03/03 00:07:44;;;;;;;2.10;1.40;;;;;;;;;;5002796;28;25091;-67
2024/03/03 00:10:10;;;;;;;1.48;1.38;;;;;;;;;;5007260;28;25052;-64
2024/03/03 00:12:36;;;;;;;2.42;1.40;;;;;;;;;;4995938;28;25079;-64
2024/03/03 00:15:02;;;;;;;1.50;1.25;;;;;;;;;;5005731;28;25055;-65
2024/03/03 00:17:28;;;;;;;1.58;1.23;;;;;;;;;;4997357;28;25113;-65
2024/03/03 00:19:54;;;;;;;2.17;1.50;;;;;;;;;;4992085;28;25071;-63
2024/03/03 00:22:21;;;;;;;1.27;1.17;;;;;;;;;;4998592;28;25123;-64
2024/03/03 00:24:47;;;;;;;2.45;1.58;;;;;;;;;;4997281;28;25057;-63
2024/03/03 00:27:13;;;;;;;1.75;1.20;;;;;;;;;;4993365;28;25097;-64
2024/03/03 00:29:39;;;;;;;1.75;1.17;;;;;;;;;;4988181;28;25072;-62
2024/03/03 00:32:05;;;;;;;1.40;1.27;;;;;;;;;;4997835;28;25100;-64
2024/03/03 00:34:31;;;;;;;1.42;1.33;;;;;;;;;;5002289;28;25072;-63
2024/03/03 00:36:57;;;;;;;2.08;1.65;;;;;;;;;;4986418;28;25055;-63
2024/03/03 00:39:23;;;;;;;1.48;1.33;;;;;;;;;;5004432;28;25059;-63
2024/03/03 00:41:49;;;;;;;1.38;1.27;;;;;;;;;;5000449;28;25171;-64
2024/03/03 00:44:15;;;;;;;2.20;1.60;;;;;;;;;;4997504;28;25063;-63
2024/03/03 00:46:41;;;;;;;1.45;1.33;;;;;;;;;;5000812;28;25177;-63
2024/03/03 00:49:07;;;;;;;1.25;1.15;;;;;;;;;;4987876;28;25073;-63
2024/03/03 00:51:33;;;;;;;3.35;1.33;;;;;;;;;;4990455;28;25053;-64
2024/03/03 00:53:59;;;;;;;2.53;1.63;;;;;;;;;;5002013;28;25133;-63
2024/03/03 00:56:26;;;;;;;3.95;1.42;;;;;;;;;;5004708;28;25075;-65
2024/03/03 00:58:52;;;;;;;1.27;1.17;;;;;;;;;;5003496;28;25109;-64
2024/03/03 01:01:18;;;;;;;1.75;1.40;;;;;;;;;;4996437;28;25092;-68
2024/03/03 01:03:44;;;;;;;3.45;1.65;;;;;;;;;;5003119;28;25080;-65
2024/03/03 01:06:10;;;;;;;1.88;1.25;;;;;;;;;;5005117;28;25153;-67
2024/03/03 01:08:36;;;;;;;1.48;1.38;;;;;;;;;;5005028;28;25086;-68
2024/03/03 01:11:02;;;;;;;1.55;1.40;;;;;;;;;;5006950;28;25084;-67
2024/03/03 01:13:28;;;;;;;2.38;1.55;;;;;;;;;;4993421;28;25075;-66
2024/03/03 01:15:54;;;;;;;1.50;1.30;;;;;;;;;;5000667;28;25066;-67
2024/03/03 01:18:20;;;;;;;3.72;1.35;;;;;;;;;;5001840;28;25155;-67
2024/03/03 01:20:46;;;;;;;1.45;1.33;;;;;;;;;;5000732;28;25056;-67
2024/03/03 01:23:13;;;;;;;2.83;1.10;;;;;;;;;;4995406;28;25114;-67
2024/03/03 01:25:39;;;;;;;1.33;1.08;;;;;;;;;;4998663;28;25086;-66
2024/03/03 01:28:07;;;;;;;1.20;1.08;;;;;;;;;;5003839;28;25096;-68
2024/03/03 01:30:33;;;;;;;1.70;1.17;;;;;;;;;;5000474;28;25074;-66
2024/03/03 01:32:59;;;;;;;1.30;1.20;;;;;;;;;;4995286;28;25102;-65
2024/03/03 01:35:25;;;;;;;1.02;1.00;;;;;;;;;;4999880;28;25138;-67
2024/03/03 01:37:51;;;;;;;2.85;1.50;;;;;;;;;;4994410;28;25063;-66
2024/03/03 01:40:17;;;;;;;2.03;1.38;;;;;;;;;;5006270;28;24981;-68
2024/03/03 01:42:43;;;;;;;2.80;1.48;;;;;;;;;;4977748;28;25150;-66
2024/03/03 01:45:18;;;;;;;3.42;1.48;;;;;;;;;;5005925;28;25096;-68
2024/03/03 01:47:44;;;;;;;1.77;1.55;;;;;;;;;;5004257;28;25120;-67
2024/03/03 01:50:10;;;;;;;1.25;1.17;;;;;;;;;;5006705;28;25171;-66
2024/03/03 01:52:37;;;;;;;2.03;1.35;;;;;;;;;;5021165;28;25100;-67
2024/03/03 01:55:03;;;;;;;2.15;1.30;;;;;;;;;;5020994;28;25072;-66
2024/03/03 01:57:30;;;;;;;1.20;1.10;;;;;;;;;;5016525;28;25110;-68
2024/03/03 01:59:58;;;;;;;1.35;1.10;;;;;;;;;;5008053;28;25056;-67
2024/03/03 02:02:27;;;;;;;1.40;1.30;;;;;;;;;;4997558;28;25600;-67
2024/03/03 02:04:53;;;;;;;1.10;1.10;;;;;;;;;;4999337;28;25072;-66
2024/03/03 02:07:20;;;;;;;1.27;1.10;;;;;;;;;;4996624;28;25152;-67
2024/03/03 02:09:46;;;;;;;3.33;1.40;;;;;;;;;;4993487;28;25069;-67
2024/03/03 02:12:13;;;;;;;1.80;1.33;;;;;;;;;;4993201;28;25052;-68
2024/03/03 02:14:39;;;;;;;4.07;1.50;;;;;;;;;;4998057;28;25056;-66
2024/03/03 02:17:05;;;;;;;1.98;1.50;;;;;;;;;;4992212;28;25105;-66
2024/03/03 02:19:36;;;;;;;1.42;1.33;;;;;;;;;;4997021;28;25140;-67
2024/03/03 02:22:03;;;;;;;1.85;1.60;;;;;;;;;;4996894;28;25064;-64
2024/03/03 02:24:29;;;;;;;1.73;1.38;;;;;;;;;;4994430;28;25080;-66
2024/03/03 02:26:55;;;;;;;1.55;1.42;;;;;;;;;;4994239;28;25188;-67
2024/03/03 02:29:21;;;;;;;1.60;1.50;;;;;;;;;;4999180;28;25074;-66
2024/03/03 02:31:49;;;;;;;2.17;1.48;;;;;;;;;;5000511;28;25062;-66
2024/03/03 02:34:15;;;;;;;1.60;1.50;;;;;;;;;;5001167;28;25062;-67
2024/03/03 02:36:41;;;;;;;2.58;1.67;;;;;;;;;;5002153;28;25067;-66
2024/03/03 02:39:07;;;;;;;1.92;1.70;;;;;;;;;;5000256;28;25113;-66
2024/03/03 02:41:33;;;;;;;2.95;1.40;;;;;;;;;;4996250;28;25062;-66
2024/03/03 02:43:59;;;;;;;1.80;1.70;;;;;;;;;;5001571;28;25110;-65
2024/03/03 02:46:25;;;;;;;2.65;2.15;;;;;;;;;;4999921;28;25066;-65
2024/03/03 02:48:51;;;;;;;1.77;1.65;;;;;;;;;;4997986;28;25125;-66
2024/03/03 02:51:17;;;;;;;3.72;1.50;;;;;;;;;;5002110;28;25169;-67
2024/03/03 02:53:43;;;;;;;2.40;1.63;;;;;;;;;;4999651;28;25105;-65
2024/03/03 02:56:09;;;;;;;1.83;1.67;;;;;;;;;;5004310;28;25117;-68
2024/03/03 02:58:35;;;;;;;2.58;1.75;;;;;;;;;;4993588;28;25051;-65
2024/03/03 03:01:01;;;;;;;2.00;1.88;;;;;;;;;;4996645;28;25081;-67
2024/03/03 03:03:28;;;;;;;2.10;1.88;;;;;;;;;;4981453;28;25132;-65
2024/03/03 03:05:54;;;;;;;2.17;1.98;;;;;;;;;;5000218;28;25075;-66
2024/03/03 03:08:20;;;;;;;2.30;1.95;;;;;;;;;;4981877;28;25055;-65
2024/03/03 03:10:46;;;;;;;2.25;2.03;;;;;;;;;;4999329;28;25061;-68
2024/03/03 03:13:12;;;;;;;2.58;2.03;;;;;;;;;;5000883;28;25069;-66
2024/03/03 03:15:38;;;;;;;2.25;2.08;;;;;;;;;;5001041;28;25070;-66
2024/03/03 03:18:04;;;;;;;3.70;1.98;;;;;;;;;;4992047;28;25059;-66
2024/03/03 03:20:30;;;;;;;3.75;2.10;;;;;;;;;;5006910;28;25138;-66
2024/03/03 03:22:56;;;;;;;1.63;1.50;;;;;;;;;;4998894;28;25153;-70
2024/03/03 03:25:22;;;;;;;5.03;1.80;;;;;;;;;;4997247;28;25051;-67
2024/03/03 03:27:48;;;;;;;4.07;1.80;;;;;;;;;;5007146;28;25063;-67
2024/03/03 03:30:14;;;;;;;2.15;1.95;;;;;;;;;;4995982;28;25117;-66
2024/03/03 03:32:40;;;;;;;3.25;2.28;;;;;;;;;;5001165;28;25122;-66
2024/03/03 03:35:08;;;;;;;3.35;1.75;;;;;;;;;;5003669;28;25555;-67
2024/03/03 03:37:34;;;;;;;1.95;1.75;;;;;;;;;;5003352;28;25057;-65
2024/03/03 03:40:00;;;;;;;2.42;1.88;;;;;;;;;;4988613;28;25071;-66
2024/03/03 03:42:26;;;;;;;2.58;2.38;;;;;;;;;;5011261;28;25114;-65
2024/03/03 03:44:52;;;;;;;6.78;2.42;;;;;;;;;;5007400;28;25084;-67
2024/03/03 03:47:18;;;;;;;2.92;2.20;;;;;;;;;;5010547;28;25063;-67
2024/03/03 03:49:44;;;;;;;2.95;2.28;;;;;;;;;;4993919;28;25063;-67
2024/03/03 03:52:10;;;;;;;2.65;2.25;;;;;;;;;;4999943;28;25057;-69
2024/03/03 03:54:36;;;;;;;2.85;2.20;;;;;;;;;;5003572;28;25141;-68
2024/03/03 03:57:02;;;;;;;5.45;2.33;;;;;;;;;;4987889;28;25098;-65
2024/03/03 03:59:28;;;;;;;4.78;2.30;;;;;;;;;;5000920;28;25101;-66
2024/03/03 04:01:54;;;;;;;4.18;2.30;;;;;;;;;;4999320;28;25063;-67
2024/03/03 04:04:21;;;;;;;3.47;2.22;;;;;;;;;;5012197;28;25059;-67
2024/03/03 04:06:47;;;;;;;3.63;2.45;;;;;;;;;;5023629;28;25073;-66
2024/03/03 04:09:13;;;;;;;3.42;2.65;;;;;;;;;;5027914;28;25076;-65
2024/03/03 04:11:40;;;;;;;7.38;2.70;;;;;;;;;;5020568;28;25081;-68
2024/03/03 04:14:06;;;;;;;3.03;2.78;;;;;;;;;;5018187;28;25085;-67
2024/03/03 04:16:32;;;;;;;3.72;3.13;;;;;;;;;;5005766;28;25065;-67
2024/03/03 04:18:58;;;;;;;4.68;2.60;;;;;;;;;;5007889;28;25172;-69
2024/03/03 04:21:24;;;;;;;3.22;2.65;;;;;;;;;;5015656;28;25064;-66
2024/03/03 04:23:49;;;;;;;3.10;2.72;;;;;;;;;;5014078;28;25095;-68
2024/03/03 04:26:15;;;;;;;4.50;2.75;;;;;;;;;;5010619;28;25076;-67
2024/03/03 04:28:42;;;;;;;3.15;2.88;;;;;;;;;;5001230;28;25131;-67
2024/03/03 04:31:08;;;;;;;4.18;3.65;;;;;;;;;;5000296;28;25093;-68
2024/03/03 04:33:35;;;;;;;4.10;3.28;;;;;;;;;;5003932;28;25183;-66
2024/03/03 04:36:01;;;;;;;3.13;2.65;;;;;;;;;;5007149;28;25061;-67
2024/03/03 04:38:27;;;;;;;3.72;3.42;;;;;;;;;;5004941;28;25088;-66
2024/03/03 04:40:53;;;;;;;8.10;4.15;;;;;;;;;;5002963;28;25073;-67
2024/03/03 04:43:19;;;;;;;3.72;3.17;;;;;;;;;;4999091;28;25061;-66
2024/03/03 04:45:46;;;;;;;6.95;3.70;;;;;;;;;;4997135;28;25066;-66
2024/03/03 04:48:13;;;;;;;6.65;3.67;;;;;;;;;;4996128;28;25070;-66
2024/03/03 04:50:39;;;;;;;5.15;3.95;;;;;;;;;;5000631;28;25062;-67
2024/03/03 04:53:05;;;;;;;3.83;3.40;;;;;;;;;;5003498;28;25089;-68
2024/03/03 04:55:31;;;;;;;6.43;4.10;;;;;;;;;;4994309;28;25148;-66
2024/03/03 04:57:57;;;;;;;6.13;4.20;;;;;;;;;;4976293;28;25074;-65
2024/03/03 05:00:23;;;;;;;4.80;4.20;;;;;;;;;;4996476;28;25063;-66
2024/03/03 05:02:49;;;;;;;5.45;4.47;;;;;;;;;;4982284;28;25063;-65
2024/03/03 05:05:15;;;;;;;6.55;3.97;;;;;;;;;;4995261;28;25057;-70
2024/03/03 05:07:42;;;;;;;5.55;4.50;;;;;;;;;;4984814;28;25064;-66
2024/03/03 05:10:09;;;;;;;8.50;4.90;;;;;;;;;;4979634;28;25051;-68
2024/03/03 05:12:35;;;;;;;9.00;4.57;;;;;;;;;;4995083;28;25059;-66
2024/03/03 05:15:01;;;;;;;8.60;4.40;;;;;;;;;;5004115;28;25140;-66
2024/03/03 05:17:27;;;;;;;5.82;4.80;;;;;;;;;;5001603;28;25099;-67
2024/03/03 05:19:53;;;;;;;5.50;4.50;;;;;;;;;;5003438;28;25084;-67
2024/03/03 05:22:19;;;;;;;6.55;4.72;;;;;;;;;;4981745;28;25064;-68
2024/03/03 05:24:45;;;;;;;4.82;4.30;;;;;;;;;;4984299;28;25048;-66
2024/03/03 05:27:11;;;;;;;9.40;5.13;;;;;;;;;;5001000;28;25071;-69
2024/03/03 05:29:37;;;;;;;5.50;4.45;;;;;;;;;;5005882;28;25060;-67
2024/03/03 05:32:03;;;;;;;6.55;4.18;;;;;;;;;;4998937;28;25079;-67
2024/03/03 05:34:29;;;;;;;6.70;4.45;;;;;;;;;;4981403;28;25165;-67
2024/03/03 05:36:55;;;;;;;6.22;4.55;;;;;;;;;;4988362;28;25059;-67
2024/03/03 05:39:21;;;;;;;5.97;4.68;;;;;;;;;;4998438;28;25059;-67
2024/03/03 05:41:47;;;;;;;6.47;4.72;;;;;;;;;;5000772;28;25066;-67
2024/03/03 05:44:13;;;;;;;6.03;4.72;;;;;;;;;;4999298;28;24998;-67
2024/03/03 05:46:39;;;;;;;5.45;4.20;;;;;;;;;;4999075;28;25054;-66
2024/03/03 05:49:06;;;;;;;5.65;4.65;;;;;;;;;;4999155;28;25056;-66
2024/03/03 05:51:32;;;;;;;5.53;4.70;;;;;;;;;;5000238;28;25047;-64
2024/03/03 05:53:58;;;;;;;6.07;4.70;;;;;;;;;;5003882;28;25071;-68
2024/03/03 05:56:24;;;;;;;5.32;4.80;;;;;;;;;;5001435;28;25054;-67
2024/03/03 05:58:51;;;;;;;6.15;4.35;;;;;;;;;;5004587;28;25059;-67
2024/03/03 06:01:18;;;;;;;12.05;6.00;;;;;;;;;;5000290;28;25066;-67
2024/03/03 06:03:44;;;;;;;5.85;4.80;;;;;;;;;;4998675;28;25056;-67
2024/03/03 06:06:10;;;;;;;5.82;4.95;;;;;;;;;;4999025;28;25081;-68
2024/03/03 06:08:50;;;;;;;6.65;5.00;;;;;;;;;;4997359;28;25076;-66
2024/03/03 06:11:18;;;;;;;5.55;4.45;;;;;;;;;;4997371;28;25111;-66
2024/03/03 06:13:44;;;;;;;6.28;5.00;;;;;;;;;;4999906;28;25079;-67
2024/03/03 06:16:10;;;;;;;5.53;4.90;;;;;;;;;;4996964;28;25049;-66
2024/03/03 06:18:36;;;;;;;4.95;4.25;;;;;;;;;;5012493;28;25113;-66
2024/03/03 06:21:02;;;;;;;6.18;4.88;;;;;;;;;;5018796;28;25074;-66
2024/03/03 06:23:28;;;;;;;7.78;5.57;;;;;;;;;;5024119;28;25076;-66
2024/03/03 06:25:54;;;;;;;8.20;5.47;;;;;;;;;;5023020;28;25079;-68
2024/03/03 06:28:20;;;;;;;7.20;5.22;;;;;;;;;;4993139;28;25070;-68
2024/03/03 06:30:46;;;;;;;5.95;4.90;;;;;;;;;;5013375;28;25050;-68
2024/03/03 06:33:12;;;;;;;5.20;4.22;;;;;;;;;;4998691;28;25074;-67
2024/03/03 06:35:38;;;;;;;6.03;4.78;;;;;;;;;;5001677;28;25603;-66
2024/03/03 06:38:04;;;;;;;6.07;5.20;;;;;;;;;;5004110;28;25097;-67
2024/03/03 06:40:30;;;;;;;8.18;5.03;;;;;;;;;;5004148;28;25140;-65
2024/03/03 06:42:56;;;;;;;5.57;5.03;;;;;;;;;;5004134;28;25050;-67
2024/03/03 06:45:22;;;;;;;7.28;4.88;;;;;;;;;;4984611;28;25066;-66
2024/03/03 06:47:48;;;;;;;5.88;4.70;;;;;;;;;;5005998;28;25091;-66
2024/03/03 06:50:15;;;;;;;6.68;4.70;;;;;;;;;;4999211;28;25147;-67
2024/03/03 06:52:41;;;;;;;6.10;4.93;;;;;;;;;;4997074;28;25166;-67
2024/03/03 06:55:07;;;;;;;8.73;5.05;;;;;;;;;;5000851;28;25083;-68
2024/03/03 06:57:33;;;;;;;7.68;5.18;;;;;;;;;;4998540;28;25140;-67
2024/03/03 06:59:59;;;;;;;8.07;4.68;;;;;;;;;;4999670;28;25143;-66
2024/03/03 07:02:56;;;;;;;7.50;4.80;;;;;;;;;;4997993;28;25076;-65
2024/03/03 07:05:12;;;;;;;6.30;5.10;;;;;;;;;;4999087;28;25074;-67
2024/03/03 07:07:38;;;;;;;6.18;5.10;;;;;;;;;;4992468;28;25059;-68
2024/03/03 07:10:04;;;;;;;5.22;4.72;;;;;;;;;;5000520;28;25079;-67
2024/03/03 07:12:30;;;;;;;5.05;4.53;;;;;;;;;;4998984;28;25058;-67
2024/03/03 07:14:56;;;;;;;6.03;4.60;;;;;;;;;;4979532;28;25059;-67
2024/03/03 07:17:22;;;;;;;6.82;4.88;;;;;;;;;;5001707;28;25081;-67
2024/03/03 07:19:48;;;;;;;7.13;5.60;;;;;;;;;;4999528;28;25079;-68
2024/03/03 07:22:14;;;;;;;8.85;4.70;;;;;;;;;;4998072;28;25070;-66
2024/03/03 07:24:40;;;;;;;8.55;4.90;;;;;;;;;;4999905;28;25169;-66
2024/03/03 07:27:06;;;;;;;13.48;5.65;;;;;;;;;;5004179;28;25079;-65
2024/03/03 07:29:32;;;;;;;14.80;5.72;;;;;;;;;;4996194;28;25090;-66
2024/03/03 07:31:58;;;;;;;6.55;5.50;;;;;;;;;;5005733;28;25049;-65
2024/03/03 07:34:24;;;;;;;8.63;5.18;;;;;;;;;;4983084;28;25166;-67
2024/03/03 07:36:50;;;;;;;7.00;5.15;;;;;;;;;;4999485;28;25080;-69
2024/03/03 07:39:16;;;;;;;9.77;5.55;;;;;;;;;;4997700;28;25066;-67
2024/03/03 07:41:42;;;;;;;11.98;5.40;;;;;;;;;;4997982;28;25083;-67
2024/03/03 07:44:08;;;;;;;6.45;5.00;;;;;;;;;;5005128;28;25040;-68
2024/03/03 07:46:35;;;;;;;8.38;5.70;;;;;;;;;;5004231;28;25150;-68
2024/03/03 07:49:01;;;;;;;8.32;6.43;;;;;;;;;;4997708;28;25056;-68
2024/03/03 07:51:28;;;;;;;6.57;5.68;;;;;;;;;;5000035;28;25359;-67
2024/03/03 07:53:54;;;;;;;8.20;5.70;;;;;;;;;;5002614;28;25158;-66
2024/03/03 07:56:21;;;;;;;7.03;5.10;;;;;;;;;;4985144;28;25087;-68
2024/03/03 07:58:46;;;;;;;7.38;5.50;;;;;;;;;;4980445;28;25123;-67
2024/03/03 08:01:12;;;;;;;6.40;5.22;;;;;;;;;;5002841;28;25055;-67
2024/03/03 08:03:38;;;;;;;7.07;5.90;;;;;;;;;;4996622;28;25122;-67
2024/03/03 08:06:05;;;;;;;8.73;6.28;;;;;;;;;;5005112;28;25099;-66
2024/03/03 08:08:31;;;;;;;8.18;5.63;;;;;;;;;;4998259;28;25088;-67
2024/03/03 08:10:57;;;;;;;7.85;6.15;;;;;;;;;;4983192;28;25077;-66
2024/03/03 08:13:22;;;;;;;7.68;5.90;;;;;;;;;;4999345;28;25182;-67
2024/03/03 08:15:48;;;;;;;6.63;5.40;;;;;;;;;;4983457;28;25101;-67
2024/03/03 08:18:14;;;;;;;8.40;6.32;;;;;;;;;;4986173;28;25163;-67
2024/03/03 08:20:40;;;;;;;10.50;6.18;;;;;;;;;;4999711;28;25106;-68
2024/03/03 08:23:06;;;;;;;9.23;6.22;;;;;;;;;;4996417;28;25075;-68
2024/03/03 08:25:33;;;;;;;8.30;5.35;;;;;;;;;;4996472;28;25060;-66
2024/03/03 08:28:02;;;;;;;9.20;5.80;;;;;;;;;;5001836;28;25141;-66
2024/03/03 08:30:28;;;;;;;7.40;5.75;;;;;;;;;;5000215;28;25058;-67
2024/03/03 08:32:54;;;;;;;11.30;7.30;;;;;;;;;;4978949;28;24888;-67
2024/03/03 08:35:20;;;;;;;8.63;6.95;;;;;;;;;;5010622;28;25092;-66
2024/03/03 08:37:46;;;;;;;7.22;5.53;;;;;;;;;;5014205;28;25092;-67
2024/03/03 08:40:12;;;;;;;6.32;5.72;;;;;;;;;;5022126;28;25103;-68
2024/03/03 08:42:38;;;;;;;7.28;6.18;;;;;;;;;;5023560;28;25067;-66
2024/03/03 08:45:06;;;;;;;10.18;6.18;;;;;;;;;;5009361;28;25148;-65
2024/03/03 08:47:32;;;;;;;9.68;6.25;;;;;;;;;;5000115;28;25079;-66
2024/03/03 08:49:58;;;;;;;11.32;6.45;;;;;;;;;;5002945;28;25062;-66
2024/03/03 08:52:26;;;;;;;9.68;6.40;;;;;;;;;;4997925;28;25071;-66
2024/03/03 08:54:52;;;;;;;10.13;6.35;;;;;;;;;;4998609;28;25141;-66
2024/03/03 08:57:18;;;;;;;12.55;6.63;;;;;;;;;;4999784;28;25066;-67
2024/03/03 08:59:44;;;;;;;6.80;6.10;;;;;;;;;;5001623;28;25072;-67
2024/03/03 09:02:10;;;;;;;10.18;6.38;;;;;;;;;;4998561;28;25087;-69
2024/03/03 09:04:39;;;;;;;7.20;5.55;;;;;;;;;;5008119;28;25080;-66
2024/03/03 09:07:07;;;;;;;9.75;7.25;;;;;;;;;;5007048;28;25057;-67
2024/03/03 09:09:33;;;;;;;9.65;6.13;;;;;;;;;;4987440;28;25092;-67
2024/03/03 09:11:59;;;;;;;10.77;6.75;;;;;;;;;;5004934;28;25084;-68
2024/03/03 09:14:25;;;;;;;8.15;5.97;;;;;;;;;;5003855;28;25057;-66
2024/03/03 09:16:51;;;;;;;8.65;6.65;;;;;;;;;;5003301;28;25059;-69
2024/03/03 09:19:17;;;;;;;8.10;6.60;;;;;;;;;;4992822;28;25135;-68
2024/03/03 09:21:43;;;;;;;9.75;6.20;;;;;;;;;;4999901;28;25090;-67
2024/03/03 09:24:09;;;;;;;9.63;6.57;;;;;;;;;;4999163;28;25074;-68
2024/03/03 09:26:35;;;;;;;10.18;6.97;;;;;;;;;;4983548;28;25069;-67
2024/03/03 09:29:01;;;;;;;8.27;6.70;;;;;;;;;;5002007;28;25136;-66
2024/03/03 09:31:27;;;;;;;7.88;5.85;;;;;;;;;;4998399;28;25091;-67
2024/03/03 09:33:53;;;;;;;9.88;6.03;;;;;;;;;;5000393;28;25065;-67
2024/03/03 09:36:19;;;;;;;9.35;6.18;;;;;;;;;;5003325;28;25076;-68
2024/03/03 09:38:46;;;;;;;8.57;5.65;;;;;;;;;;5000027;28;25133;-68
2024/03/03 09:41:12;;;;;;;8.95;6.38;;;;;;;;;;4998242;28;25061;-68
2024/03/03 09:43:39;;;;;;;11.27;6.53;;;;;;;;;;5001435;28;25151;-68
2024/03/03 09:46:05;;;;;;;11.95;6.18;;;;;;;;;;5001700;28;24979;-67
2024/03/03 09:48:32;;;;;;;8.30;5.78;;;;;;;;;;4994870;28;25081;-70
2024/03/03 09:50:58;;;;;;;10.48;6.75;;;;;;;;;;4986919;28;25071;-65
2024/03/03 09:53:24;;;;;;;8.98;6.20;;;;;;;;;;4985873;28;25110;-68
2024/03/03 09:55:52;;;;;;;7.75;5.85;;;;;;;;;;5004572;28;25095;-69
2024/03/03 09:58:18;;;;;;;6.72;5.75;;;;;;;;;;5001223;28;25062;-66
2024/03/03 10:00:44;;;;;;;7.43;5.82;;;;;;;;;;4994984;28;25148;-67
2024/03/03 10:03:10;;;;;;;11.73;6.32;;;;;;;;;;5001898;28;25077;-68
2024/03/03 10:05:39;;;;;;;9.68;6.15;;;;;;;;;;4998637;28;25087;-65
2024/03/03 10:08:05;;;;;;;12.60;5.90;;;;;;;;;;4995928;28;25075;-66
2024/03/03 10:10:35;;;;;;;11.43;5.78;;;;;;;;;;4997231;28;25062;-65
2024/03/03 10:13:02;;;;;;;10.60;5.28;;;;;;;;;;4998571;28;25064;-65
2024/03/03 10:15:30;;;;;;;7.65;4.65;;;;;;;;;;4998779;28;25055;-66
2024/03/03 10:17:56;;;;;;;7.30;5.75;;;;;;;;;;5000873;28;25078;-63
2024/03/03 10:20:22;;;;;;;5.57;4.75;;;;;;;;;;5002378;28;25062;-64
2024/03/03 10:22:48;;;;;;;6.30;4.63;;;;;;;;;;4984716;28;25171;-66
2024/03/03 10:25:16;;;;;;;8.40;4.50;;;;;;;;;;5000916;28;25021;-65
2024/03/03 10:27:45;;;;;;;8.27;3.97;;;;;;;;;;4993852;28;25056;-64
2024/03/03 10:30:13;;;;;;;7.43;3.97;;;;;;;;;;4996910;28;25138;-64
2024/03/03 10:32:40;;;;;;;6.78;4.07;;;;;;;;;;4996083;28;25061;-65
2024/03/03 10:35:08;;;;;;;5.97;3.70;;;;;;;;;;5002428;28;25060;-65
2024/03/03 10:37:34;;;;;;;5.53;3.30;;;;;;;;;;4999944;28;25075;-65
2024/03/03 10:40:01;;;;;;;4.95;3.45;;;;;;;;;;5002132;28;25054;-65
2024/03/03 10:42:27;;;;;;;5.53;3.60;;;;;;;;;;5001323;28;25071;-65
2024/03/03 10:44:53;;;;;;;6.00;2.95;;;;;;;;;;5001942;28;25114;-64
2024/03/03 10:47:19;;;;;;;3.95;2.78;;;;;;;;;;5002535;28;25081;-65
2024/03/03 10:49:46;;;;;;;5.10;2.67;;;;;;;;;;4996241;28;25047;-63
2024/03/03 10:52:12;;;;;;;5.03;2.55;;;;;;;;;;4997084;28;25081;-64
2024/03/03 10:54:39;;;;;;;5.28;3.05;;;;;;;;;;5008025;28;25071;-64
2024/03/03 10:57:05;;;;;;;6.03;2.08;;;;;;;;;;5004278;28;25093;-64
2024/03/03 10:59:32;;;;;;;5.97;2.55;;;;;;;;;;5007947;28;25127;-63
2024/03/03 11:01:58;;;;;;;3.38;2.33;;;;;;;;;;5026239;28;25116;-63
2024/03/03 11:04:30;;;;;;;4.28;2.38;;;;;;;;;;5016304;28;25053;-65
2024/03/03 11:06:59;;;;;;;2.50;2.30;;;;;;;;;;5006308;28;25064;-64
2024/03/03 11:09:27;;;;;;;3.33;1.85;;;;;;;;;;5000804;28;25096;-65
2024/03/03 11:12:00;;;;;;;3.70;1.80;;;;;;;;;;4982928;28;25143;-64
2024/03/03 11:14:28;;;;;;;3.83;2.60;;;;;;;;;;4989608;28;25102;-63
2024/03/03 11:16:56;;;;;;;2.70;1.58;;;;;;;;;;5003711;28;25080;-64
2024/03/03 11:19:28;;;;;;;2.60;1.67;;;;;;;;;;4993629;28;25071;-64
2024/03/03 11:22:03;;;;;;;3.33;1.52;;;;;;;;;;5003103;28;25062;-65
2024/03/03 11:24:30;;;;;;;2.17;1.25;;;;;;;;;;5005679;28;25082;-65
2024/03/03 11:27:04;;;;;;;3.03;1.40;;;;;;;;;;5012993;28;25081;-65
2024/03/03 11:29:30;;;;;;;2.03;1.50;;;;;;;;;;5005692;28;25054;-65
2024/03/03 11:31:57;;;;;;;3.38;1.50;;;;;;;;;;5010617;28;25053;-64
2024/03/03 11:34:23;;;;;;;2.47;1.42;;;;;;;;;;5003484;28;25088;-64
2024/03/03 11:36:49;;;;;;;2.00;1.70;;;;;;;;;;5001896;28;25095;-68
2024/03/03 11:39:16;;;;;;;2.42;1.50;;;;;;;;;;5002632;28;25081;-65
2024/03/03 11:41:42;;;;;;;3.38;1.80;;;;;;;;;;5007144;28;25132;-63
2024/03/03 11:44:27;;;;;;;2.55;1.23;;;;;;;;;;5002023;28;25159;-66
2024/03/03 11:46:53;;;;;;;1.83;1.27;;;;;;;;;;5003424;28;25077;-65
2024/03/03 11:49:26;;;;;;;2.45;1.17;;;;;;;;;;5000576;28;25073;-65
2024/03/03 11:51:52;;;;;;;;;;;;;;;;;;4996623;28;25065;-64
2024/03/03 11:54:29;;;;;;;2.65;1.25;;;;;;;;;;4998793;28;25088;-66
2024/03/03 11:56:59;;;;;;;1.80;1.20;;;;;;;;;;5005359;28;25052;-65
2024/03/03 11:59:25;;;;;;;2.72;1.40;;;;;;;;;;4978069;28;25058;-66
2024/03/03 12:01:53;;;;;;;2.90;1.45;;;;;;;;;;5004250;28;25173;-66
2024/03/03 12:04:19;;;;;;;3.47;1.42;;;;;;;;;;4998264;28;25042;-66
2024/03/03 12:06:45;;;;;;;4.32;1.52;;;;;;;;;;5003065;28;25082;-64
2024/03/03 12:09:15;;;;;;;3.50;1.55;;;;;;;;;;4999039;28;25110;-65
2024/03/03 12:11:42;;;;;;;3.72;1.52;;;;;;;;;;5004037;28;25062;-66
2024/03/03 12:14:08;;;;;;;3.33;1.70;;;;;;;;;;4999983;28;25067;-65
2024/03/03 12:16:34;;;;;;;2.72;1.98;;;;;;;;;;5004155;28;25061;-65
2024/03/03 12:19:01;;;;;;;3.00;1.42;;;;;;;;;;4996689;28;25132;-65
2024/03/03 12:21:27;;;;;;;6.40;1.42;;;;;;;;;;4997938;28;25072;-64
2024/03/03 12:23:53;;;;;;;2.25;1.75;;;;;;;;;;5000100;28;25058;-65
2024/03/03 12:26:19;;;;;;;4.72;2.35;;;;;;;;;;5000927;28;25064;-65
2024/03/03 12:28:45;;;;;;;5.15;1.90;;;;;;;;;;4995619;28;25067;-65
2024/03/03 12:31:11;;;;;;;4.13;2.08;;;;;;;;;;4999700;28;25058;-64
2024/03/03 12:33:42;;;;;;;6.60;1.98;;;;;;;;;;5001785;28;24789;-65
2024/03/03 12:36:08;;;;;;;5.22;2.03;;;;;;;;;;4998716;28;25063;-65
2024/03/03 12:38:34;;;;;;;3.53;2.08;;;;;;;;;;4982349;28;25078;-66
2024/03/03 12:41:00;;;;;;;2.15;1.95;;;;;;;;;;5001813;28;25114;-66
2024/03/03 12:43:26;;;;;;;6.20;2.13;;;;;;;;;;5000604;28;25093;-65
2024/03/03 12:45:54;;;;;;;4.43;2.15;;;;;;;;;;5004143;28;25076;-65
2024/03/03 12:48:21;;;;;;;3.67;2.35;;;;;;;;;;5001480;28;25044;-65
2024/03/03 12:50:58;;;;;;;7.00;1.95;;;;;;;;;;5001273;28;25069;-66
2024/03/03 12:53:24;;;;;;;4.32;1.80;;;;;;;;;;4992957;28;25178;-65
2024/03/03 12:55:51;;;;;;;4.63;1.80;;;;;;;;;;4994116;28;25056;-66
2024/03/03 12:58:17;;;;;;;5.97;2.55;;;;;;;;;;4995631;28;25053;-64
2024/03/03 13:00:47;;;;;;;1.83;1.52;;;;;;;;;;4998403;28;25142;-68
2024/03/03 13:03:13;;;;;;;4.43;1.92;;;;;;;;;;5000052;28;25076;-65
2024/03/03 13:05:39;;;;;;;3.97;1.90;;;;;;;;;;5001428;28;25059;-66
2024/03/03 13:08:05;;;;;;;3.22;2.00;;;;;;;;;;4997274;28;25069;-66
2024/03/03 13:10:31;;;;;;;2.55;1.58;;;;;;;;;;4997440;28;25141;-66
2024/03/03 13:12:57;;;;;;;2.75;1.88;;;;;;;;;;5002483;28;25076;-65
2024/03/03 13:15:25;;;;;;;2.78;1.50;;;;;;;;;;5005337;28;25052;-67
2024/03/03 13:18:10;;;;;;;4.95;1.70;;;;;;;;;;5002767;28;25146;-65
2024/03/03 13:20:36;;;;;;;1.50;1.40;;;;;;;;;;5013483;28;25084;-65
2024/03/03 13:23:09;;;;;;;3.92;1.50;;;;;;;;;;5022049;28;25056;-66
2024/03/03 13:25:35;;;;;;;4.80;2.55;;;;;;;;;;5008892;28;25100;-67
2024/03/03 13:28:01;;;;;;;2.00;1.60;;;;;;;;;;5008748;28;25079;-67
2024/03/03 13:30:27;;;;;;;3.47;1.80;;;;;;;;;;5011443;28;25078;-66
2024/03/03 13:32:53;;;;;;;2.50;1.80;;;;;;;;;;5004682;28;25112;-68
2024/03/03 13:35:19;;;;;;;4.30;2.03;;;;;;;;;;5001609;28;25153;-66
2024/03/03 13:37:45;;;;;;;3.03;1.90;;;;;;;;;;4985250;28;25061;-67
2024/03/03 13:40:11;;;;;;;4.45;1.63;;;;;;;;;;4987226;28;25140;-66
2024/03/03 13:42:37;;;;;;;5.13;2.05;;;;;;;;;;5001983;28;25048;-66
2024/03/03 13:45:04;;;;;;;2.20;1.67;;;;;;;;;;4997837;28;25071;-67
2024/03/03 13:47:31;;;;;;;2.38;1.52;;;;;;;;;;4981871;28;25093;-66
2024/03/03 13:49:57;;;;;;;1.48;1.30;;;;;;;;;;5005121;28;25068;-67
2024/03/03 13:52:23;;;;;;;1.42;1.33;;;;;;;;;;4988161;28;25057;-67
2024/03/03 13:54:49;;;;;;;2.40;1.20;;;;;;;;;;5005136;28;25063;-68
2024/03/03 13:57:15;;;;;;;2.85;1.60;;;;;;;;;;4994908;28;25061;-67
2024/03/03 13:59:42;;;;;;;3.25;1.10;;;;;;;;;;5005432;28;25083;-66
2024/03/03 14:02:08;;;;;;;2.97;1.38;;;;;;;;;;5003439;28;25150;-67
2024/03/03 14:04:34;;;;;;;1.80;1.30;;;;;;;;;;5003931;28;25069;-67
2024/03/03 14:07:02;;;;;;;3.60;1.15;;;;;;;;;;4996349;28;25106;-67
2024/03/03 14:09:28;;;;;;;2.25;1.52;;;;;;;;;;4982011;28;25088;-66
2024/03/03 14:11:54;;;;;;;3.42;1.55;;;;;;;;;;4998169;28;25056;-65
2024/03/03 14:14:20;;;;;;;3.83;1.80;;;;;;;;;;4998971;28;25154;-66
2024/03/03 14:16:46;;;;;;;2.80;1.50;;;;;;;;;;4998926;28;25064;-66
2024/03/03 14:19:12;;;;;;;3.22;1.50;;;;;;;;;;4993587;28;25061;-66
2024/03/03 14:21:38;;;;;;;2.05;1.52;;;;;;;;;;4980583;28;25093;-69
2024/03/03 14:24:04;;;;;;;2.55;1.33;;;;;;;;;;4998466;28;25061;-67
2024/03/03 14:26:31;;;;;;;2.33;1.52;;;;;;;;;;4982070;28;25065;-68
2024/03/03 14:28:57;;;;;;;4.00;1.33;;;;;;;;;;4997901;28;25118;-66
2024/03/03 14:31:23;;;;;;;2.35;1.48;;;;;;;;;;5007263;28;25045;-67
2024/03/03 14:33:49;;;;;;;2.50;1.50;;;;;;;;;;4998996;28;25049;-67
2024/03/03 14:36:16;;;;;;;3.47;1.88;;;;;;;;;;5004961;28;25084;-67
2024/03/03 14:38:42;;;;;;;3.47;1.77;;;;;;;;;;5012590;28;25071;-65